Time;durP1;ratioP1;P1;durP2;ratioP2;P2;SDS_P1;SDS_P2;PMS_P1;PMS_P2;Temp;Humidity;BMP_temperature;BMP_pressure;BME280_temperature;BME280_humidity;BME280_pressure;Samples;Min_cycle;Max_cycle;Signal;HPM_P1;HPM_P2
2022/05/21 00:00:26;;;;;;;2.38;1.02;;;22.20;54.40;;;;;;4965512;28;20459;-63
2022/05/21 00:02:52;;;;;;;2.00;1.23;;;22.20;54.40;;;;;;4964628;28;20129;-63
2022/05/21 00:05:21;;;;;;;1.98;0.90;;;22.20;54.40;;;;;;4956062;28;20046;-62
2022/05/21 00:07:46;;;;;;;1.92;1.10;;;22.20;54.30;;;;;;4963251;28;20038;-64
2022/05/21 00:10:14;;;;;;;1.30;0.80;;;22.20;54.40;;;;;;4961996;28;20074;-65
2022/05/21 00:12:40;;;;;;;2.47;1.27;;;22.20;54.30;;;;;;4970379;28;20250;-62
2022/05/21 00:15:08;;;;;;;1.70;1.05;;;22.20;54.30;;;;;;4970466;28;20039;-65
2022/05/21 00:17:34;;;;;;;2.45;1.13;;;22.20;54.30;;;;;;4968903;28;20041;-63
2022/05/21 00:20:00;;;;;;;1.55;1.02;;;22.20;54.30;;;;;;4970387;28;20045;-63
2022/05/21 00:22:27;;;;;;;1.33;1.00;;;22.20;54.30;;;;;;4969599;28;20130;-63
2022/05/21 00:24:52;;;;;;;2.55;1.30;;;22.20;54.20;;;;;;4967913;28;20066;-63
2022/05/21 00:27:18;;;;;;;1.63;1.10;;;22.20;54.20;;;;;;4970319;28;20439;-65
2022/05/21 00:29:44;;;;;;;3.40;1.30;;;22.20;54.20;;;;;;4969734;28;20679;-62
2022/05/21 00:32:09;;;;;;;2.25;1.20;;;22.20;54.20;;;;;;4962612;28;20487;-62
2022/05/21 00:34:35;;;;;;;1.40;1.10;;;22.20;54.30;;;;;;4941869;28;20604;-62
2022/05/21 00:37:02;;;;;;;2.38;1.10;;;22.20;54.30;;;;;;4966200;28;20065;-63
2022/05/21 00:39:28;;;;;;;2.53;1.23;;;22.10;54.20;;;;;;4968021;28;20047;-62
2022/05/21 00:41:54;;;;;;;1.13;1.00;;;22.20;54.20;;;;;;4952454;28;20464;-63
2022/05/21 00:44:20;;;;;;;2.50;1.20;;;22.10;54.90;;;;;;4952375;28;20056;-64
2022/05/21 00:46:47;;;;;;;2.67;1.35;;;22.20;54.20;;;;;;4964933;28;20647;-62
2022/05/21 00:49:25;;;;;;;1.65;1.17;;;22.20;54.20;;;;;;4966077;28;20043;-65
2022/05/21 00:52:24;;;;;;;1.33;1.23;;;22.20;54.10;;;;;;4970163;28;20042;-64
2022/05/21 00:54:54;;;;;;;2.95;1.45;;;22.20;54.00;;;;;;4945312;28;20058;-63
2022/05/21 00:57:25;;;;;;;3.80;1.77;;;22.20;54.30;;;;;;4969665;28;20089;-65
2022/05/21 00:59:53;;;;;;;;;;;22.10;54.10;;;;;;4970214;28;20122;-65
2022/05/21 01:02:38;;;;;;;2.20;1.20;;;22.10;54.00;;;;;;4968649;28;19918;-63
2022/05/21 01:05:08;;;;;;;1.98;1.35;;;22.10;54.20;;;;;;4968241;28;20128;-62
2022/05/21 01:07:36;;;;;;;2.75;1.60;;;22.10;54.20;;;;;;4966576;28;20049;-65
2022/05/21 01:10:03;;;;;;;2.10;1.40;;;22.10;54.10;;;;;;4969040;28;20138;-62
2022/05/21 01:12:34;;;;;;;2.05;1.73;;;22.10;54.20;;;;;;4968134;28;20062;-63
2022/05/21 01:15:04;;;;;;;2.38;1.58;;;22.10;54.10;;;;;;4950124;28;20546;-62
2022/05/21 01:17:29;;;;;;;3.25;1.70;;;22.10;54.00;;;;;;4965228;28;20066;-62
2022/05/21 01:20:00;;;;;;;2.72;1.80;;;22.10;54.10;;;;;;4966748;28;20122;-62
2022/05/21 01:22:28;;;;;;;3.10;1.85;;;22.10;54.00;;;;;;4968812;28;20063;-63
2022/05/21 01:24:54;;;;;;;3.83;1.58;;;22.10;54.10;;;;;;4966856;28;20189;-64
2022/05/21 01:27:20;;;;;;;2.08;1.67;;;22.10;54.10;;;;;;4968185;28;20544;-62
2022/05/21 01:29:50;;;;;;;3.03;1.75;;;22.10;54.10;;;;;;4965989;28;20627;-62
2022/05/21 01:32:17;;;;;;;3.92;1.67;;;22.10;54.10;;;;;;4965744;28;20053;-62
2022/05/21 01:34:43;;;;;;;3.05;1.80;;;22.10;54.20;;;;;;4966304;28;20054;-65
2022/05/21 01:37:09;;;;;;;2.15;1.67;;;22.10;54.10;;;;;;4967334;28;20051;-62
2022/05/21 01:39:34;;;;;;;2.58;1.75;;;22.10;54.10;;;;;;4966645;28;20137;-63
2022/05/21 01:42:00;;;;;;;2.55;2.00;;;22.10;54.20;;;;;;4966939;28;20495;-62
2022/05/21 01:44:38;;;;;;;1.63;1.45;;;22.10;54.20;;;;;;4967181;28;20050;-62
2022/05/21 01:47:08;;;;;;;3.72;1.85;;;22.10;54.10;;;;;;4967485;28;20030;-63
2022/05/21 01:49:34;;;;;;;2.70;1.58;;;22.10;54.20;;;;;;4964987;28;20046;-62
2022/05/21 01:52:00;;;;;;;3.13;2.03;;;22.10;54.20;;;;;;4965943;28;20078;-62
2022/05/21 01:54:26;;;;;;;4.00;1.98;;;22.10;54.10;;;;;;4967660;28;20396;-63
2022/05/21 01:56:52;;;;;;;4.25;2.42;;;22.10;54.20;;;;;;4967386;28;20070;-62
2022/05/21 01:59:17;;;;;;;4.55;2.30;;;22.00;54.20;;;;;;4966798;28;20685;-62
2022/05/21 02:01:43;;;;;;;3.47;2.05;;;22.00;54.10;;;;;;4961337;28;20031;-62
2022/05/21 02:04:08;;;;;;;2.75;2.10;;;22.10;54.20;;;;;;4961738;28;20050;-62
2022/05/21 02:06:34;;;;;;;3.78;2.45;;;22.00;54.20;;;;;;4964453;28;20039;-61
2022/05/21 02:09:00;;;;;;;2.78;1.80;;;22.00;54.20;;;;;;4927929;28;20085;-62
2022/05/21 02:11:25;;;;;;;3.97;2.30;;;22.10;54.20;;;;;;4964458;28;20043;-62
2022/05/21 02:13:51;;;;;;;3.10;1.75;;;22.10;54.20;;;;;;4965415;28;20047;-66
2022/05/21 02:16:16;;;;;;;3.92;2.22;;;22.10;54.20;;;;;;4966172;28;20061;-62
2022/05/21 02:18:42;;;;;;;4.40;2.20;;;22.10;54.30;;;;;;4963767;28;20398;-62
2022/05/21 02:21:08;;;;;;;2.33;2.05;;;22.00;54.30;;;;;;4964147;28;20034;-62
2022/05/21 02:23:34;;;;;;;3.33;2.05;;;22.10;54.30;;;;;;4966543;28;20046;-62
2022/05/21 02:26:00;;;;;;;2.55;2.15;;;22.00;54.20;;;;;;4965716;28;20042;-63
2022/05/21 02:28:27;;;;;;;4.68;2.53;;;22.10;54.20;;;;;;4947783;28;20090;-62
2022/05/21 02:30:52;;;;;;;2.83;2.35;;;22.00;54.20;;;;;;4965015;28;20048;-65
2022/05/21 02:33:18;;;;;;;3.10;2.50;;;22.10;54.30;;;;;;4964908;28;20034;-63
2022/05/21 02:35:44;;;;;;;3.78;2.58;;;22.00;54.20;;;;;;4965389;28;20046;-61
2022/05/21 02:40:53;;;;;;;3.42;2.20;;;22.00;54.20;;;;;;4965811;28;20109;-62
2022/05/21 02:43:19;;;;;;;3.60;2.50;;;22.00;54.30;;;;;;4965218;28;20039;-62
2022/05/21 02:45:45;;;;;;;3.92;2.85;;;22.00;54.30;;;;;;4960281;28;20101;-62
2022/05/21 02:48:10;;;;;;;3.80;2.22;;;22.00;54.20;;;;;;4961768;28;20039;-62
2022/05/21 02:50:37;;;;;;;3.13;2.05;;;22.00;54.30;;;;;;4962486;28;20039;-62
2022/05/21 02:53:06;;;;;;;3.58;2.28;;;22.00;54.20;;;;;;4960944;28;20043;-63
2022/05/21 02:55:31;;;;;;;4.30;2.10;;;22.00;54.20;;;;;;4965873;28;20402;-63
2022/05/21 02:57:57;;;;;;;3.45;2.40;;;22.00;54.30;;;;;;4954984;28;20043;-65
2022/05/21 03:00:27;;;;;;;4.05;2.30;;;22.00;54.30;;;;;;4963875;28;20614;-62
2022/05/21 03:02:53;;;;;;;4.38;2.33;;;22.00;54.20;;;;;;4963642;28;20042;-62
2022/05/21 03:05:19;;;;;;;2.97;2.20;;;22.00;54.30;;;;;;4952347;28;20070;-62
2022/05/21 03:07:49;;;;;;;3.38;2.17;;;22.00;54.30;;;;;;4964833;28;20074;-63
2022/05/21 03:10:22;;;;;;;4.10;1.90;;;22.00;54.30;;;;;;4964841;28;20049;-62
2022/05/21 03:12:55;;;;;;;3.05;1.83;;;22.00;54.30;;;;;;4965092;28;20130;-63
2022/05/21 03:15:26;;;;;;;3.65;2.00;;;22.00;54.30;;;;;;4964696;28;20530;-63
2022/05/21 03:17:51;;;;;;;3.60;2.17;;;22.00;54.30;;;;;;4963201;28;20034;-63
2022/05/21 03:20:19;;;;;;;2.72;2.00;;;22.00;54.30;;;;;;4948149;28;20046;-63
2022/05/21 03:22:45;;;;;;;2.55;1.85;;;22.00;54.30;;;;;;4965484;28;20830;-64
2022/05/21 03:25:12;;;;;;;3.38;1.80;;;22.00;54.40;;;;;;4965304;28;20075;-64
2022/05/21 03:27:38;;;;;;;3.63;1.95;;;22.00;54.30;;;;;;4945993;28;20517;-66
2022/05/21 03:30:06;;;;;;;3.60;2.03;;;22.00;54.40;;;;;;4964312;28;20054;-62
2022/05/21 03:32:31;;;;;;;2.30;2.00;;;22.00;54.40;;;;;;4965280;28;20191;-62
2022/05/21 03:34:57;;;;;;;2.42;1.90;;;22.00;54.40;;;;;;4964726;28;20616;-65
2022/05/21 03:37:22;;;;;;;2.15;1.65;;;22.00;54.40;;;;;;4965600;28;20069;-62
2022/05/21 03:39:48;;;;;;;3.28;1.80;;;22.00;54.40;;;;;;4963437;28;20090;-63
2022/05/21 03:42:14;;;;;;;6.35;1.75;;;22.00;54.40;;;;;;4964335;28;20513;-62
2022/05/21 03:44:39;;;;;;;3.72;1.90;;;22.00;54.40;;;;;;4965076;28;20042;-62
2022/05/21 03:47:05;;;;;;;5.18;1.95;;;22.00;54.40;;;;;;4964737;28;20467;-63
2022/05/21 03:49:31;;;;;;;4.78;2.10;;;22.00;54.50;;;;;;4963346;28;20050;-62
2022/05/21 03:51:56;;;;;;;3.58;1.88;;;21.90;54.40;;;;;;4965271;28;20144;-62
2022/05/21 03:54:23;;;;;;;4.03;1.50;;;22.00;54.40;;;;;;4961773;28;20074;-63
2022/05/21 03:56:48;;;;;;;3.60;1.77;;;21.90;54.40;;;;;;4946906;28;20039;-62
2022/05/21 03:59:14;;;;;;;2.45;1.67;;;21.90;54.40;;;;;;4955975;28;20582;-62
2022/05/21 04:01:41;;;;;;;2.92;1.73;;;21.90;54.50;;;;;;4958711;28;20035;-63
2022/05/21 04:04:07;;;;;;;3.03;1.60;;;21.90;54.40;;;;;;4961165;28;20031;-62
2022/05/21 04:06:33;;;;;;;4.30;1.67;;;21.90;54.40;;;;;;4961283;28;20054;-61
2022/05/21 04:08:59;;;;;;;3.40;1.80;;;21.90;54.40;;;;;;4963660;28;20125;-62
2022/05/21 04:11:24;;;;;;;4.47;1.95;;;21.90;54.40;;;;;;4964360;28;20049;-62
2022/05/21 04:13:50;;;;;;;3.72;1.50;;;21.90;54.50;;;;;;4964735;28;20046;-64
2022/05/21 04:16:16;;;;;;;4.35;2.33;;;21.90;54.50;;;;;;4965421;28;20035;-63
2022/05/21 04:18:42;;;;;;;5.60;1.80;;;21.90;54.50;;;;;;4963888;28;21199;-62
2022/05/21 04:21:07;;;;;;;4.03;1.70;;;21.90;54.50;;;;;;4962879;28;20031;-63
2022/05/21 04:23:33;;;;;;;3.95;1.77;;;21.90;54.50;;;;;;4963420;28;20035;-62
2022/05/21 04:25:58;;;;;;;5.40;1.88;;;21.90;54.50;;;;;;4964602;28;20243;-62
2022/05/21 04:28:24;;;;;;;5.93;1.90;;;21.90;54.50;;;;;;4963859;28;20042;-63
2022/05/21 04:30:49;;;;;;;4.93;1.67;;;21.90;54.50;;;;;;4964938;28;20677;-62
2022/05/21 04:33:15;;;;;;;3.28;1.48;;;21.90;54.50;;;;;;4946855;28;20528;-62
2022/05/21 04:38:25;;;;;;;5.05;1.75;;;21.90;54.50;;;;;;4962211;28;20165;-62
2022/05/21 04:40:51;;;;;;;4.32;1.40;;;21.90;54.60;;;;;;4965370;28;20523;-65
2022/05/21 04:43:16;;;;;;;4.03;1.30;;;21.90;54.60;;;;;;4963802;28;20106;-66
2022/05/21 04:45:42;;;;;;;3.13;1.67;;;21.90;54.60;;;;;;4946908;28;20042;-62
2022/05/21 04:48:09;;;;;;;4.00;1.40;;;21.90;54.60;;;;;;4953773;28;20379;-62
2022/05/21 04:50:37;;;;;;;4.15;1.63;;;21.90;54.70;;;;;;4963484;28;20896;-62
2022/05/21 04:53:03;;;;;;;4.05;1.55;;;21.90;54.60;;;;;;4966772;28;20050;-63
2022/05/21 04:55:29;;;;;;;5.47;1.55;;;21.90;54.60;;;;;;4966381;28;20057;-62
2022/05/21 04:57:54;;;;;;;3.40;1.55;;;21.90;54.60;;;;;;4967939;28;20078;-63
2022/05/21 05:00:20;;;;;;;3.10;1.45;;;21.90;54.60;;;;;;4967843;28;20053;-64
2022/05/21 05:02:45;;;;;;;4.65;1.27;;;21.90;54.60;;;;;;4967119;28;20380;-63
2022/05/21 05:05:12;;;;;;;4.30;1.38;;;21.90;54.70;;;;;;4965984;28;20117;-62
2022/05/21 05:07:38;;;;;;;3.78;1.40;;;21.90;54.70;;;;;;4968369;28;20046;-62
2022/05/21 05:10:05;;;;;;;2.08;1.42;;;21.80;54.60;;;;;;4967498;28;20049;-64
2022/05/21 05:12:34;;;;;;;3.00;1.10;;;21.90;54.70;;;;;;4959752;28;20041;-62
2022/05/21 05:15:00;;;;;;;3.30;1.40;;;21.80;54.60;;;;;;4950101;28;20069;-62
2022/05/21 05:17:27;;;;;;;3.53;1.77;;;21.90;54.60;;;;;;4967095;28;20102;-62
2022/05/21 05:19:55;;;;;;;2.58;1.55;;;21.90;54.60;;;;;;4966024;28;20540;-64
2022/05/21 05:22:22;;;;;;;4.40;1.20;;;21.90;54.60;;;;;;4967203;28;20038;-62
2022/05/21 05:24:48;;;;;;;3.90;1.50;;;21.90;54.60;;;;;;4965855;28;20042;-62
2022/05/21 05:27:13;;;;;;;3.80;1.60;;;21.90;54.60;;;;;;4968188;28;20474;-62
2022/05/21 05:29:39;;;;;;;3.38;1.38;;;21.90;54.60;;;;;;4967775;28;20893;-62
2022/05/21 05:32:05;;;;;;;6.28;1.70;;;21.80;54.50;;;;;;4949490;28;20046;-61
2022/05/21 05:34:31;;;;;;;4.25;1.35;;;21.90;54.60;;;;;;4966611;28;20039;-62
2022/05/21 05:36:57;;;;;;;5.90;1.85;;;21.80;54.50;;;;;;4967600;28;20474;-62
2022/05/21 05:39:22;;;;;;;6.80;1.85;;;21.80;54.50;;;;;;4949916;28;20081;-61
2022/05/21 05:41:48;;;;;;;4.07;1.73;;;21.80;54.50;;;;;;4950762;28;20121;-60
2022/05/21 05:44:14;;;;;;;4.38;1.58;;;21.90;54.50;;;;;;4966196;28;20046;-61
2022/05/21 05:46:39;;;;;;;5.53;1.35;;;21.80;54.40;;;;;;4952619;28;20619;-62
2022/05/21 05:49:05;;;;;;;6.18;1.52;;;21.80;54.40;;;;;;4966387;28;20054;-61
2022/05/21 05:51:32;;;;;;;6.22;1.80;;;21.80;54.40;;;;;;4967893;28;20055;-61
2022/05/21 05:53:57;;;;;;;4.38;1.92;;;21.80;54.50;;;;;;4967353;28;20039;-63
2022/05/21 05:56:23;;;;;;;4.75;1.50;;;21.90;54.50;;;;;;4964570;28;20054;-61
2022/05/21 06:01:34;;;;;;;5.95;1.58;;;21.90;54.40;;;;;;4958518;28;20110;-64
2022/05/21 06:03:59;;;;;;;5.18;1.77;;;21.90;54.20;;;;;;4963839;28;20038;-62
2022/05/21 06:06:25;;;;;;;6.13;1.40;;;21.90;54.20;;;;;;4948302;28;20030;-63
2022/05/21 06:08:51;;;;;;;8.52;1.98;;;21.90;54.20;;;;;;4966960;28;20047;-62
2022/05/21 06:11:17;;;;;;;6.05;1.85;;;21.90;54.10;;;;;;4965709;28;20030;-61
2022/05/21 06:13:44;;;;;;;6.20;1.80;;;21.90;54.10;;;;;;4966719;28;20126;-62
2022/05/21 06:16:09;;;;;;;6.47;2.28;;;21.90;54.10;;;;;;4946574;28;20113;-61
2022/05/21 06:18:35;;;;;;;5.70;1.70;;;21.90;54.00;;;;;;4966601;28;20512;-63
2022/05/21 06:21:03;;;;;;;7.78;2.05;;;21.90;54.00;;;;;;4966094;28;20086;-62
2022/05/21 06:23:30;;;;;;;6.93;1.85;;;21.90;54.00;;;;;;4967131;28;20039;-61
2022/05/21 06:25:57;;;;;;;5.30;2.00;;;21.90;54.00;;;;;;4966649;28;20129;-62
2022/05/21 06:28:23;;;;;;;5.57;1.95;;;21.90;54.00;;;;;;4948703;28;20793;-62
2022/05/21 06:30:48;;;;;;;10.65;2.70;;;21.90;53.90;;;;;;4966427;28;20126;-62
2022/05/21 06:33:17;;;;;;;7.85;1.90;;;21.90;53.80;;;;;;4963913;28;20053;-61
2022/05/21 06:35:44;;;;;;;6.25;2.00;;;21.90;53.90;;;;;;4964917;28;20602;-62
2022/05/21 06:38:10;;;;;;;8.93;2.08;;;21.90;54.60;;;;;;4966078;28;20043;-62
2022/05/21 06:40:35;;;;;;;9.30;2.55;;;21.90;53.80;;;;;;4965046;28;20403;-62
2022/05/21 06:43:01;;;;;;;7.60;1.98;;;21.90;53.70;;;;;;4966401;28;20054;-61
2022/05/21 06:45:28;;;;;;;6.43;1.98;;;21.90;53.50;;;;;;4946664;28;20077;-61
2022/05/21 06:47:58;;;;;;;7.40;2.65;;;21.90;54.10;;;;;;4967078;28;20130;-61
2022/05/21 06:50:24;;;;;;;6.18;1.92;;;21.90;53.50;;;;;;4966566;28;20074;-61
2022/05/21 06:52:49;;;;;;;7.00;1.92;;;21.90;53.30;;;;;;4967272;28;20050;-62
2022/05/21 06:55:15;;;;;;;9.43;2.47;;;21.80;53.00;;;;;;4964851;28;20114;-62
2022/05/21 06:57:40;;;;;;;9.73;2.22;;;21.80;52.80;;;;;;4965993;28;20086;-61
2022/05/21 07:00:07;;;;;;;6.25;1.95;;;21.80;52.80;;;;;;4963573;28;20041;-60
2022/05/21 07:02:32;;;;;;;6.60;2.05;;;21.80;52.70;;;;;;4963455;28;20047;-60
2022/05/21 07:07:46;;;;;;;6.28;2.03;;;21.80;52.60;;;;;;4957954;28;20057;-63
2022/05/21 07:10:23;;;;;;;5.20;1.80;;;21.80;52.80;;;;;;4963319;28;20991;-63
2022/05/21 07:12:49;;;;;;;7.03;1.88;;;21.80;52.50;;;;;;4944556;28;20499;-61
2022/05/21 07:15:16;;;;;;;7.10;1.80;;;21.80;52.70;;;;;;4961664;28;20129;-62
2022/05/21 07:17:43;;;;;;;6.47;2.25;;;21.80;52.80;;;;;;4963995;28;20085;-61
2022/05/21 07:20:15;;;;;;;6.97;1.90;;;21.80;53.20;;;;;;4955393;28;20038;-61
2022/05/21 07:22:47;;;;;;;5.28;1.92;;;21.80;53.40;;;;;;4961863;28;20038;-64
2022/05/21 07:25:16;;;;;;;6.95;1.65;;;21.80;53.50;;;;;;4955705;28;20085;-61
2022/05/21 07:27:42;;;;;;;6.75;1.75;;;21.90;53.60;;;;;;4961574;28;20098;-62
2022/05/21 07:30:09;;;;;;;5.28;2.10;;;21.90;53.60;;;;;;4963415;28;20039;-62
2022/05/21 07:32:35;;;;;;;4.90;1.90;;;21.90;53.60;;;;;;4963093;28;20086;-61
2022/05/21 07:35:11;;;;;;;4.63;1.52;;;21.90;54.10;;;;;;4963027;28;20198;-63
2022/05/21 07:37:36;;;;;;;3.72;1.65;;;21.90;53.70;;;;;;4963248;28;20470;-61
2022/05/21 07:40:04;;;;;;;7.22;1.92;;;21.90;53.60;;;;;;4962392;28;20030;-62
2022/05/21 07:42:29;;;;;;;5.80;1.75;;;21.90;53.90;;;;;;4962092;28;20559;-61
2022/05/21 07:44:56;;;;;;;7.13;1.83;;;21.90;53.90;;;;;;4962705;28;20172;-61
2022/05/21 07:47:24;;;;;;;6.63;1.90;;;21.90;54.10;;;;;;4962677;28;20050;-61
2022/05/21 07:49:57;;;;;;;5.65;1.90;;;21.90;54.10;;;;;;4961823;28;20439;-63
2022/05/21 07:52:24;;;;;;;5.93;2.20;;;21.90;54.30;;;;;;4962934;28;20042;-62
2022/05/21 07:54:50;;;;;;;7.20;2.17;;;21.90;54.40;;;;;;4959980;28;20085;-61
2022/05/21 07:57:15;;;;;;;6.65;1.67;;;21.90;54.00;;;;;;4961744;28;20357;-62
2022/05/21 07:59:41;;;;;;;7.75;1.50;;;21.90;53.50;;;;;;4962560;28;20047;-62
2022/05/21 08:02:12;;;;;;;9.90;1.63;;;21.90;54.10;;;;;;4962382;28;20027;-62
2022/05/21 08:04:38;;;;;;;4.53;1.48;;;22.00;54.10;;;;;;4963670;28;20038;-61
2022/05/21 08:07:03;;;;;;;5.18;1.85;;;21.90;54.20;;;;;;4962197;28;20043;-63
2022/05/21 08:09:29;;;;;;;6.15;1.92;;;22.00;54.30;;;;;;4961537;28;20050;-63
2022/05/21 08:11:55;;;;;;;6.82;1.80;;;21.90;54.00;;;;;;4962275;28;20046;-62
2022/05/21 08:14:20;;;;;;;6.85;2.58;;;22.00;54.30;;;;;;4963996;28;20035;-61
2022/05/21 08:16:47;;;;;;;6.22;2.08;;;22.00;54.30;;;;;;4944971;28;20138;-63
2022/05/21 08:19:13;;;;;;;7.28;2.03;;;22.00;54.60;;;;;;4964573;28;20039;-63
2022/05/21 08:21:39;;;;;;;9.48;2.00;;;22.00;54.80;;;;;;4965110;28;20093;-61
2022/05/21 08:27:02;;;;;;;5.90;1.65;;;22.00;54.90;;;;;;4957879;28;20057;-61
2022/05/21 08:29:34;;;;;;;4.95;1.98;;;22.00;54.30;;;;;;4967070;28;20054;-62
2022/05/21 08:32:00;;;;;;;7.35;1.73;;;22.00;53.00;;;;;;4944864;28;20105;-61
2022/05/21 08:34:27;;;;;;;9.57;1.70;;;21.90;52.30;;;;;;4957735;28;20047;-62
2022/05/21 08:36:53;;;;;;;6.68;2.13;;;21.80;52.10;;;;;;4963795;28;20050;-62
2022/05/21 08:39:21;;;;;;;6.20;1.60;;;21.80;52.60;;;;;;4965431;28;20035;-63
2022/05/21 08:41:54;;;;;;;6.45;1.90;;;21.80;53.10;;;;;;4965600;28;20474;-62
2022/05/21 08:44:45;;;;;;;7.97;2.15;;;21.80;53.50;;;;;;4966104;28;20387;-61
2022/05/21 08:47:16;;;;;;;4.40;1.95;;;21.90;53.70;;;;;;4959595;28;20047;-63
2022/05/21 08:49:58;;;;;;;7.60;1.77;;;21.90;53.70;;;;;;4943691;28;20046;-62
2022/05/21 08:52:46;;;;;;;6.18;1.75;;;21.90;53.80;;;;;;4967507;28;20109;-64
2022/05/21 08:55:18;;;;;;;6.30;1.63;;;21.90;53.50;;;;;;4965871;28;20050;-62
2022/05/21 08:58:00;;;;;;;3.58;1.38;;;21.90;53.60;;;;;;4966279;28;20104;-61
2022/05/21 09:00:31;;;;;;;9.15;1.83;;;21.90;53.50;;;;;;4965009;28;20039;-65
2022/05/21 09:02:57;;;;;;;;;;;21.90;53.50;;;;;;4964826;28;20049;-62
2022/05/21 09:05:23;;;;;;;5.05;1.40;;;21.90;53.00;;;;;;4964433;28;20363;-62
2022/05/21 09:08:15;;;;;;;6.22;1.52;;;21.90;53.40;;;;;;4966949;28;20039;-62
2022/05/21 09:11:03;;;;;;;5.38;1.63;;;21.90;53.40;;;;;;4959373;28;20066;-62
2022/05/21 09:13:49;;;;;;;4.82;1.63;;;21.90;53.20;;;;;;4966318;28;20046;-60
2022/05/21 09:19:03;;;;;;;4.03;1.40;;;21.90;53.10;;;;;;4965564;28;20258;-61
2022/05/21 09:21:32;;;;;;;6.18;1.88;;;21.90;53.20;;;;;;4964710;28;20039;-59
2022/05/21 09:24:03;;;;;;;5.55;2.03;;;21.90;53.30;;;;;;4965184;28;20546;-61
2022/05/21 09:26:44;;;;;;;4.80;2.33;;;21.90;53.30;;;;;;4965162;28;20039;-60
2022/05/21 09:29:28;;;;;;;5.68;2.03;;;21.80;53.20;;;;;;4965722;28;20450;-57
2022/05/21 09:31:55;;;;;;;6.03;2.10;;;21.90;53.20;;;;;;4965973;28;20070;-60
2022/05/21 09:34:25;;;;;;;7.15;1.90;;;21.90;53.30;;;;;;4964085;28;20089;-61
2022/05/21 09:36:50;;;;;;;6.15;1.95;;;21.90;53.30;;;;;;4965943;28;20055;-62
2022/05/21 09:39:30;;;;;;;8.18;1.70;;;21.80;53.20;;;;;;4963869;28;20101;-61
2022/05/21 09:45:22;;;;;;;6.22;2.13;;;21.80;53.30;;;;;;4966328;28;20053;-62
2022/05/21 09:47:52;;;;;;;6.35;2.15;;;21.80;53.40;;;;;;4963517;28;20462;-63
2022/05/21 09:50:24;;;;;;;4.80;1.63;;;21.80;53.50;;;;;;4965425;28;20038;-62
2022/05/21 09:52:50;;;;;;;6.10;1.85;;;21.80;53.50;;;;;;4966831;28;20045;-61
2022/05/21 09:55:27;;;;;;;4.53;1.65;;;21.70;53.60;;;;;;4965126;28;20038;-59
2022/05/21 09:57:54;;;;;;;5.80;1.65;;;21.80;53.70;;;;;;4965398;28;20046;-61
2022/05/21 10:00:28;;;;;;;3.78;1.42;;;21.80;53.70;;;;;;4962947;28;20038;-64
2022/05/21 10:02:57;;;;;;;5.57;1.40;;;21.80;53.90;;;;;;4964318;28;20057;-64
2022/05/21 10:05:32;;;;;;;6.70;1.50;;;21.80;54.10;;;;;;4962847;28;20041;-64
2022/05/21 10:11:14;;;;;;;6.68;1.77;;;21.80;54.20;;;;;;4963999;28;20466;-59
2022/05/21 10:13:44;;;;;;;3.53;1.50;;;21.80;54.10;;;;;;4963488;28;20062;-60
2022/05/21 10:16:38;;;;;;;5.10;1.90;;;21.90;54.30;;;;;;4964588;28;20117;-58
2022/05/21 10:19:18;;;;;;;5.30;1.85;;;21.90;54.80;;;;;;4966377;28;20039;-59
2022/05/21 10:22:21;;;;;;;4.40;1.70;;;21.90;54.80;;;;;;4947631;28;20051;-61
2022/05/21 10:24:58;;;;;;;5.40;1.75;;;21.90;55.40;;;;;;4947888;28;20125;-59
2022/05/21 10:27:56;;;;;;;3.45;1.83;;;21.90;55.20;;;;;;4966042;28;20045;-60
2022/05/21 10:30:43;;;;;;;3.35;1.17;;;22.00;55.70;;;;;;4963978;28;20043;-60
2022/05/21 10:33:40;;;;;;;5.35;1.52;;;21.90;55.90;;;;;;4964233;28;20042;-60
2022/05/21 10:36:26;;;;;;;5.53;1.95;;;22.00;55.40;;;;;;4964596;28;20113;-59
2022/05/21 10:38:51;;;;;;;3.75;1.50;;;21.90;56.10;;;;;;4964357;28;20407;-60
2022/05/21 10:41:32;;;;;;;6.78;1.60;;;21.90;56.00;;;;;;4945900;28;20042;-60
2022/05/21 10:44:30;;;;;;;4.10;1.33;;;22.00;56.20;;;;;;4964079;28;20031;-59
2022/05/21 10:47:03;;;;;;;3.97;1.48;;;22.00;56.10;;;;;;4944951;28;20089;-58
2022/05/21 10:49:57;;;;;;;5.00;1.50;;;22.00;56.10;;;;;;4963716;28;20407;-60
2022/05/21 10:52:45;;;;;;;4.93;1.40;;;22.00;56.20;;;;;;4963987;28;20101;-61
2022/05/21 10:55:30;;;;;;;6.05;1.60;;;22.00;56.20;;;;;;4965768;28;20113;-60
2022/05/21 10:57:58;;;;;;;6.05;1.50;;;22.00;56.10;;;;;;4964746;28;20608;-59
2022/05/21 11:00:44;;;;;;;8.18;1.50;;;22.00;56.20;;;;;;4963133;28;20043;-59
2022/05/21 11:03:48;;;;;;;3.85;1.25;;;22.00;56.40;;;;;;4964953;28;20039;-60
2022/05/21 11:06:59;;;;;;;9.15;1.80;;;22.00;56.40;;;;;;4963504;28;20149;-63
2022/05/21 11:09:37;;;;;;;7.40;1.40;;;22.00;56.40;;;;;;4948770;28;20046;-59
2022/05/21 11:12:12;;;;;;;3.53;1.42;;;22.00;56.20;;;;;;4964661;28;20092;-58
2022/05/21 11:14:50;;;;;;;4.40;1.50;;;22.00;56.10;;;;;;4964877;28;20070;-58
2022/05/21 11:17:39;;;;;;;5.53;1.20;;;22.00;55.80;;;;;;4963668;28;20130;-59
2022/05/21 11:20:04;;;;;;;3.72;1.42;;;22.00;55.80;;;;;;4963968;28;20053;-59
2022/05/21 11:22:41;;;;;;;5.07;1.30;;;22.00;55.80;;;;;;4964133;28;20528;-62
2022/05/21 11:25:19;;;;;;;5.45;1.58;;;22.00;55.60;;;;;;4962684;28;20049;-61
2022/05/21 11:28:10;;;;;;;8.32;1.30;;;22.00;55.50;;;;;;4963381;28;20149;-60
2022/05/21 11:30:36;;;;;;;5.53;1.40;;;22.00;55.50;;;;;;4958052;28;20050;-59
2022/05/21 11:38:42;;;;;;;4.75;1.20;;;22.00;56.10;;;;;;4962955;28;20043;-60
2022/05/21 11:41:27;;;;;;;5.47;1.20;;;22.00;55.30;;;;;;4962275;28;20430;-61
2022/05/21 11:47:22;;;;;;;5.53;1.50;;;22.00;55.00;;;;;;4897117;29;20409;-62
2022/05/21 11:49:52;;;;;;;3.00;1.05;;;21.90;55.00;;;;;;4961140;28;20086;-60
2022/05/21 11:52:29;;;;;;;5.17;1.17;;;22.00;55.00;;;;;;4964377;28;20035;-59
2022/05/21 11:54:58;;;;;;;5.93;1.38;;;22.00;54.90;;;;;;4961945;28;20070;-63
2022/05/21 11:57:37;;;;;;;5.63;1.17;;;22.00;54.80;;;;;;4964405;28;20245;-60
2022/05/21 12:00:16;;;;;;;4.72;1.30;;;22.00;54.80;;;;;;4963018;28;20165;-60
2022/05/21 12:02:54;;;;;;;5.03;1.73;;;22.00;54.60;;;;;;4968825;28;20070;-61
2022/05/21 12:05:48;;;;;;;3.50;1.38;;;22.00;54.60;;;;;;4968841;28;20054;-63
2022/05/21 12:08:17;;;;;;;4.38;1.27;;;22.00;54.40;;;;;;4970518;28;20039;-60
2022/05/21 12:10:56;;;;;;;4.18;1.60;;;22.00;54.40;;;;;;4970721;28;20046;-61
2022/05/21 12:13:34;;;;;;;3.28;1.10;;;22.00;54.50;;;;;;4970548;28;20097;-60
2022/05/21 12:16:24;;;;;;;6.80;1.42;;;22.00;54.40;;;;;;4969929;28;20042;-61
2022/05/21 12:18:56;;;;;;;3.83;1.05;;;22.00;54.40;;;;;;4967852;28;20070;-62
2022/05/21 12:21:28;;;;;;;3.10;1.20;;;22.00;54.40;;;;;;4945840;28;20050;-60
2022/05/21 12:23:54;;;;;;;3.50;1.10;;;22.00;54.30;;;;;;4967141;28;20042;-60
2022/05/21 12:26:41;;;;;;;3.00;1.25;;;22.00;54.40;;;;;;4968464;28;20877;-61
2022/05/21 12:29:19;;;;;;;5.15;1.17;;;22.00;54.20;;;;;;4970165;28;20045;-59
2022/05/21 12:31:48;;;;;;;3.28;1.15;;;22.00;54.30;;;;;;4961098;28;20661;-61
2022/05/21 12:34:22;;;;;;;4.68;1.30;;;22.00;54.30;;;;;;4962361;28;20047;-60
2022/05/21 12:37:00;;;;;;;7.13;1.50;;;22.00;54.20;;;;;;4968926;28;20061;-59
2022/05/21 12:39:34;;;;;;;2.42;1.10;;;22.00;54.10;;;;;;4968376;28;20086;-59
2022/05/21 12:42:25;;;;;;;3.65;1.30;;;22.00;54.20;;;;;;4970646;28;20150;-59
2022/05/21 12:44:52;;;;;;;5.57;1.80;;;22.00;54.20;;;;;;4968214;28;20039;-60
2022/05/21 12:47:31;;;;;;;7.82;1.70;;;22.00;54.30;;;;;;4965931;28;20050;-59
2022/05/21 12:49:59;;;;;;;11.35;1.65;;;22.00;53.70;;;;;;4962316;28;20047;-63
2022/05/21 12:52:24;;;;;;;6.75;1.80;;;22.00;53.50;;;;;;4964016;28;20030;-60
2022/05/21 12:55:10;;;;;;;6.50;1.90;;;22.00;54.00;;;;;;4967604;28;20510;-62
2022/05/21 12:57:36;;;;;;;30.15;2.60;;;22.00;54.40;;;;;;4968409;28;20042;-59
2022/05/21 13:00:04;;;;;;;5.15;1.58;;;22.00;54.80;;;;;;4968554;28;20254;-60
2022/05/21 13:02:42;;;;;;;3.63;1.77;;;22.00;54.90;;;;;;4968659;28;20411;-60
2022/05/21 13:05:12;;;;;;;8.52;1.77;;;22.00;54.80;;;;;;4968854;28;20419;-59
2022/05/21 13:07:44;;;;;;;5.63;1.45;;;22.00;54.90;;;;;;4968464;28;20034;-60
2022/05/21 13:10:26;;;;;;;4.20;1.38;;;22.00;55.60;;;;;;4969143;28;20118;-60
2022/05/21 13:13:03;;;;;;;3.90;1.50;;;22.00;55.00;;;;;;4967853;28;20467;-59
2022/05/21 13:15:40;;;;;;;5.82;1.48;;;22.00;54.90;;;;;;4966565;28;20167;-59
2022/05/21 13:18:40;;;;;;;7.20;1.75;;;22.00;55.00;;;;;;4965913;28;20041;-62
2022/05/21 13:21:19;;;;;;;5.65;1.65;;;22.00;55.10;;;;;;4959082;28;20073;-61
2022/05/21 13:24:03;;;;;;;4.93;1.75;;;22.00;55.10;;;;;;4964392;28;20474;-61
2022/05/21 13:26:32;;;;;;;4.63;1.40;;;22.00;55.00;;;;;;4967040;28;20050;-59
2022/05/21 13:29:28;;;;;;;5.25;1.45;;;22.10;55.00;;;;;;4950181;28;20411;-60
2022/05/21 13:31:54;;;;;;;6.32;1.70;;;22.10;55.00;;;;;;4962486;28;20052;-60
2022/05/21 13:34:34;;;;;;;5.53;1.40;;;22.00;55.00;;;;;;4962470;28;20369;-61
2022/05/21 13:37:02;;;;;;;7.22;1.73;;;22.00;54.90;;;;;;4963680;28;20042;-60